Terminal Aerodrome Forecast
Issued by NWS Tuscon, AZ

Home | Current Version | Previous Version | Text Only | Print | Product List | Glossary On
Versions: 1 2 3 4 5 6 7 8 9 10 11 12 13 14 15 16 17 18 19
000
FTUS45 KTWC 211100
TAFDUG
TAF
KDUG 211137Z 2112/2212 VRB04KT P6SM FEW110 BKN160
     FM211700 23006KT P6SM SCT070 OVC110
     FM212100 26009KT P6SM VCSH SCT050 OVC090
     FM220100 32007KT P6SM SCT050 BKN090
     FM220600 02005KT P6SM SCT090 BKN160=

USA.gov is the U.S. government's official web portal to all federal, state and local government web resources and services.